TPC2022 KONT-KLAX
Flight info
| Callsign | TPC2022 |
|---|---|
| Flight time | 0h 26m |
| Altitude | 8000 |
| Route | POM1 POM V210 LAX |
| Aircraft | C172/L-SD/S |
Departure
| Time | 2026-05-06 04:43 |
|---|---|
| Airport | Ontario International Airport (KONT) |
Arrival
| Time | 2026-05-06 05:09 |
|---|---|
| Airport | Los Angeles International Airport (KLAX) |
| Time | Latitude | Longitude | Altitude | Speed | Heading |
|---|---|---|---|---|---|
| 2026-05-06 04:03 | 34.05309 | -117.60416 | 918 ft | 0 kts | 270° |
| 2026-05-06 04:36 | 34.05311 | -117.60425 | 917 ft | 1 kts | 300° |
| 2026-05-06 04:36 | 34.05327 | -117.60429 | 918 ft | 7 kts | 20° |
| 2026-05-06 04:36 | 34.05369 | -117.60407 | 920 ft | 8 kts | 18° |
| 2026-05-06 04:37 | 34.05387 | -117.60329 | 920 ft | 12 kts | 89° |
| 2026-05-06 04:37 | 34.05387 | -117.60203 | 918 ft | 17 kts | 90° |
| 2026-05-06 04:37 | 34.05387 | -117.60043 | 917 ft | 20 kts | 89° |
| 2026-05-06 04:37 | 34.05388 | -117.59869 | 917 ft | 20 kts | 89° |
| 2026-05-06 04:38 | 34.05388 | -117.59698 | 917 ft | 19 kts | 90° |
| 2026-05-06 04:38 | 34.05388 | -117.59549 | 917 ft | 16 kts | 90° |
| 2026-05-06 04:38 | 34.05388 | -117.59415 | 917 ft | 16 kts | 89° |
| 2026-05-06 04:38 | 34.05388 | -117.59279 | 917 ft | 15 kts | 89° |
| 2026-05-06 04:39 | 34.05390 | -117.59145 | 917 ft | 17 kts | 90° |
| 2026-05-06 04:39 | 34.05388 | -117.58986 | 917 ft | 20 kts | 92° |
| 2026-05-06 04:39 | 34.05388 | -117.58810 | 917 ft | 21 kts | 89° |
| 2026-05-06 04:39 | 34.05388 | -117.58645 | 917 ft | 16 kts | 89° |
| 2026-05-06 04:40 | 34.05389 | -117.58522 | 917 ft | 13 kts | 89° |
| 2026-05-06 04:40 | 34.05388 | -117.58401 | 917 ft | 13 kts | 89° |
| 2026-05-06 04:40 | 34.05392 | -117.58310 | 919 ft | 6 kts | 68° |
| 2026-05-06 04:40 | 34.05406 | -117.58285 | 920 ft | 1 kts | 41° |
| 2026-05-06 04:41 | 34.05407 | -117.58285 | 920 ft | 1 kts | 40° |
| 2026-05-06 04:41 | 34.05476 | -117.58275 | 924 ft | 12 kts | 346° |
| 2026-05-06 04:42 | 34.05499 | -117.58338 | 924 ft | 4 kts | 269° |
| 2026-05-06 04:42 | 34.05498 | -117.58523 | 921 ft | 51 kts | 269° |
| 2026-05-06 04:42 | 34.05508 | -117.59081 | 1047 ft | 72 kts | 272° |
| 2026-05-06 04:42 | 34.05557 | -117.59676 | 1293 ft | 72 kts | 277° |
| 2026-05-06 04:43 | 34.05651 | -117.60255 | 1553 ft | 70 kts | 281° |
| 2026-05-06 04:43 | 34.05687 | -117.60831 | 1788 ft | 71 kts | 247° |
| 2026-05-06 04:43 | 34.05281 | -117.61135 | 2001 ft | 77 kts | 180° |
| 2026-05-06 04:43 | 34.04825 | -117.60805 | 2234 ft | 79 kts | 135° |
| 2026-05-06 04:44 | 34.04435 | -117.60332 | 2459 ft | 81 kts | 137° |
| 2026-05-06 04:44 | 34.03928 | -117.60059 | 2662 ft | 82 kts | 185° |
| 2026-05-06 04:44 | 34.03351 | -117.60161 | 2875 ft | 84 kts | 190° |
| 2026-05-06 04:44 | 34.02788 | -117.60272 | 3121 ft | 81 kts | 191° |
| 2026-05-06 04:45 | 34.02224 | -117.60407 | 3375 ft | 82 kts | 192° |
| 2026-05-06 04:45 | 34.01672 | -117.60549 | 3645 ft | 81 kts | 191° |
| 2026-05-06 04:45 | 34.01131 | -117.60686 | 3900 ft | 81 kts | 192° |
| 2026-05-06 04:45 | 34.00571 | -117.60829 | 4141 ft | 83 kts | 191° |
| 2026-05-06 04:46 | 33.99993 | -117.60919 | 4359 ft | 88 kts | 187° |
| 2026-05-06 04:46 | 33.99381 | -117.61029 | 4616 ft | 87 kts | 189° |
| 2026-05-06 04:46 | 33.98688 | -117.61169 | 4622 ft | 112 kts | 188° |
| 2026-05-06 04:46 | 33.97879 | -117.61317 | 4675 ft | 121 kts | 188° |
| 2026-05-06 04:47 | 33.97032 | -117.61453 | 4723 ft | 126 kts | 187° |
| 2026-05-06 04:47 | 33.96177 | -117.61609 | 4640 ft | 123 kts | 199° |
| 2026-05-06 04:47 | 33.95589 | -117.62295 | 4538 ft | 118 kts | 251° |
| 2026-05-06 04:47 | 33.95504 | -117.63248 | 4370 ft | 115 kts | 270° |
| 2026-05-06 04:48 | 33.95480 | -117.64214 | 4164 ft | 117 kts | 270° |
| 2026-05-06 04:48 | 33.95455 | -117.65224 | 4011 ft | 124 kts | 270° |
| 2026-05-06 04:48 | 33.95435 | -117.66255 | 4030 ft | 119 kts | 270° |
| 2026-05-06 04:48 | 33.95408 | -117.67200 | 4075 ft | 109 kts | 270° |
| 2026-05-06 04:49 | 33.95377 | -117.68114 | 4134 ft | 107 kts | 269° |
| 2026-05-06 04:49 | 33.95340 | -117.69010 | 4202 ft | 106 kts | 268° |
| 2026-05-06 04:49 | 33.95265 | -117.69898 | 4238 ft | 108 kts | 264° |
| 2026-05-06 04:49 | 33.95182 | -117.70778 | 4332 ft | 103 kts | 265° |
| 2026-05-06 04:50 | 33.95108 | -117.71673 | 4337 ft | 109 kts | 265° |
| 2026-05-06 04:50 | 33.95018 | -117.72590 | 4332 ft | 111 kts | 264° |
| 2026-05-06 04:50 | 33.94908 | -117.73506 | 4303 ft | 111 kts | 263° |
| 2026-05-06 04:50 | 33.94799 | -117.74423 | 4273 ft | 110 kts | 263° |
| 2026-05-06 04:51 | 33.94672 | -117.75346 | 4206 ft | 113 kts | 262° |
| 2026-05-06 04:51 | 33.94525 | -117.76287 | 4139 ft | 114 kts | 260° |
| 2026-05-06 04:51 | 33.94366 | -117.77219 | 4079 ft | 114 kts | 261° |
| 2026-05-06 04:51 | 33.94207 | -117.78162 | 4001 ft | 116 kts | 257° |
| 2026-05-06 04:52 | 33.93996 | -117.79092 | 3975 ft | 112 kts | 267° |
| 2026-05-06 04:52 | 33.94014 | -117.80016 | 3971 ft | 109 kts | 274° |
| 2026-05-06 04:52 | 33.94040 | -117.80937 | 3986 ft | 113 kts | 272° |
| 2026-05-06 04:52 | 33.94086 | -117.81902 | 4016 ft | 117 kts | 277° |
| 2026-05-06 04:53 | 33.94186 | -117.82886 | 4042 ft | 119 kts | 278° |
| 2026-05-06 04:53 | 33.94289 | -117.83871 | 4073 ft | 119 kts | 278° |
| 2026-05-06 04:53 | 33.94384 | -117.84863 | 4100 ft | 119 kts | 277° |
| 2026-05-06 04:53 | 33.94482 | -117.85863 | 4080 ft | 121 kts | 277° |
| 2026-05-06 04:54 | 33.94594 | -117.86874 | 4079 ft | 121 kts | 279° |
| 2026-05-06 04:54 | 33.94716 | -117.87879 | 4083 ft | 121 kts | 279° |
| 2026-05-06 04:54 | 33.94839 | -117.88872 | 4112 ft | 119 kts | 281° |
| 2026-05-06 04:54 | 33.94964 | -117.89849 | 4138 ft | 118 kts | 280° |
| 2026-05-06 04:55 | 33.95074 | -117.90826 | 4136 ft | 120 kts | 277° |
| 2026-05-06 04:55 | 33.95158 | -117.91845 | 4108 ft | 122 kts | 277° |
| 2026-05-06 04:55 | 33.95245 | -117.92866 | 4056 ft | 123 kts | 278° |
| 2026-05-06 04:55 | 33.95347 | -117.93887 | 4052 ft | 119 kts | 279° |
| 2026-05-06 04:56 | 33.95451 | -117.94868 | 4072 ft | 117 kts | 279° |
| 2026-05-06 04:56 | 33.95554 | -117.95837 | 4048 ft | 118 kts | 279° |
| 2026-05-06 04:56 | 33.95677 | -117.96831 | 4053 ft | 118 kts | 281° |
| 2026-05-06 04:56 | 33.95833 | -117.97802 | 4053 ft | 119 kts | 282° |
| 2026-05-06 04:57 | 33.95982 | -117.98776 | 4060 ft | 118 kts | 281° |
| 2026-05-06 04:57 | 33.96100 | -117.99755 | 4082 ft | 117 kts | 279° |
| 2026-05-06 04:57 | 33.96196 | -118.00730 | 4095 ft | 117 kts | 278° |
| 2026-05-06 04:57 | 33.96296 | -118.01703 | 4090 ft | 118 kts | 279° |
| 2026-05-06 04:58 | 33.96396 | -118.02696 | 4064 ft | 120 kts | 277° |
| 2026-05-06 04:58 | 33.96481 | -118.03701 | 4033 ft | 122 kts | 277° |
| 2026-05-06 04:58 | 33.96573 | -118.04727 | 4009 ft | 122 kts | 278° |
| 2026-05-06 04:58 | 33.96668 | -118.05743 | 3982 ft | 122 kts | 278° |
| 2026-05-06 04:59 | 33.96753 | -118.06737 | 4008 ft | 119 kts | 277° |
| 2026-05-06 04:59 | 33.96732 | -118.07749 | 3974 ft | 122 kts | 264° |
| 2026-05-06 04:59 | 33.96621 | -118.08770 | 3953 ft | 122 kts | 261° |
| 2026-05-06 04:59 | 33.96437 | -118.09780 | 3939 ft | 122 kts | 258° |
| 2026-05-06 05:00 | 33.96278 | -118.10767 | 3925 ft | 118 kts | 262° |
| 2026-05-06 05:00 | 33.96174 | -118.11748 | 3752 ft | 119 kts | 266° |
| 2026-05-06 05:00 | 33.96113 | -118.12749 | 3567 ft | 120 kts | 267° |
| 2026-05-06 05:00 | 33.96059 | -118.13754 | 3443 ft | 114 kts | 268° |
| 2026-05-06 05:01 | 33.96008 | -118.14606 | 3493 ft | 94 kts | 267° |
| 2026-05-06 05:01 | 33.95947 | -118.15370 | 3502 ft | 91 kts | 267° |
| 2026-05-06 05:01 | 33.95874 | -118.16136 | 3469 ft | 92 kts | 266° |
| 2026-05-06 05:01 | 33.95824 | -118.16901 | 3459 ft | 90 kts | 271° |
| 2026-05-06 05:02 | 33.95809 | -118.17653 | 3434 ft | 91 kts | 268° |
| 2026-05-06 05:02 | 33.95754 | -118.18417 | 3462 ft | 91 kts | 267° |
| 2026-05-06 05:02 | 33.95692 | -118.19192 | 3501 ft | 92 kts | 266° |
| 2026-05-06 05:02 | 33.95624 | -118.19958 | 3529 ft | 93 kts | 266° |
| 2026-05-06 05:03 | 33.95552 | -118.20693 | 3567 ft | 79 kts | 264° |
| 2026-05-06 05:03 | 33.95478 | -118.21371 | 3469 ft | 89 kts | 264° |
| 2026-05-06 05:03 | 33.95388 | -118.22155 | 3280 ft | 97 kts | 265° |
| 2026-05-06 05:03 | 33.95295 | -118.22969 | 3052 ft | 98 kts | 264° |
| 2026-05-06 05:04 | 33.95208 | -118.23782 | 2830 ft | 99 kts | 263° |
| 2026-05-06 05:04 | 33.95118 | -118.24604 | 2591 ft | 100 kts | 264° |
| 2026-05-06 05:04 | 33.95041 | -118.25423 | 2360 ft | 98 kts | 263° |
| 2026-05-06 05:04 | 33.94955 | -118.26218 | 2166 ft | 94 kts | 262° |
| 2026-05-06 05:05 | 33.94883 | -118.27009 | 2004 ft | 95 kts | 263° |
| 2026-05-06 05:05 | 33.94809 | -118.27786 | 1915 ft | 91 kts | 263° |
| 2026-05-06 05:05 | 33.94743 | -118.28547 | 1775 ft | 92 kts | 262° |
| 2026-05-06 05:05 | 33.94664 | -118.29330 | 1606 ft | 95 kts | 261° |
| 2026-05-06 05:06 | 33.94576 | -118.30122 | 1461 ft | 94 kts | 262° |
| 2026-05-06 05:06 | 33.94487 | -118.30900 | 1329 ft | 93 kts | 261° |
| 2026-05-06 05:06 | 33.94403 | -118.31667 | 1232 ft | 91 kts | 262° |
| 2026-05-06 05:06 | 33.94330 | -118.32426 | 1119 ft | 91 kts | 263° |
| 2026-05-06 05:07 | 33.94260 | -118.33173 | 1015 ft | 89 kts | 262° |
| 2026-05-06 05:07 | 33.94199 | -118.33826 | 926 ft | 69 kts | 262° |
| 2026-05-06 05:07 | 33.94143 | -118.34393 | 782 ft | 68 kts | 262° |
| 2026-05-06 05:07 | 33.94080 | -118.34952 | 684 ft | 65 kts | 262° |
| 2026-05-06 05:08 | 33.94020 | -118.35497 | 581 ft | 66 kts | 261° |
| 2026-05-06 05:08 | 33.93970 | -118.36050 | 494 ft | 65 kts | 263° |
| 2026-05-06 05:08 | 33.93913 | -118.36590 | 420 ft | 65 kts | 259° |
| 2026-05-06 05:08 | 33.93853 | -118.37135 | 336 ft | 66 kts | 262° |
| 2026-05-06 05:09 | 33.93794 | -118.37693 | 247 ft | 67 kts | 261° |
| 2026-05-06 05:09 | 33.93740 | -118.38248 | 163 ft | 67 kts | 262° |
| 2026-05-06 05:09 | 33.93685 | -118.38786 | 99 ft | 55 kts | 261° |
| 2026-05-06 05:09 | 33.93648 | -118.39139 | 102 ft | 31 kts | 263° |
| 2026-05-06 05:10 | 33.93631 | -118.39328 | 102 ft | 14 kts | 279° |
| 2026-05-06 05:10 | 33.93670 | -118.39375 | 103 ft | 7 kts | 350° |
| 2026-05-06 05:10 | 33.93710 | -118.39379 | 103 ft | 0 kts | 354° |